createdAt,value
2022-11-15T00:00:39.162Z,59.74
2022-11-15T00:03:07.105Z,59.95
2022-11-15T00:05:36.807Z,59.74
2022-11-15T00:08:05.147Z,59.98
2022-11-15T00:10:33.156Z,59.99
2022-11-15T00:13:02.538Z,59.47
2022-11-15T00:15:30.515Z,60.17
2022-11-15T00:17:58.341Z,59.69
2022-11-15T00:20:26.227Z,59.45
2022-11-15T00:22:54.078Z,59.55
2022-11-15T00:25:21.892Z,59.65
2022-11-15T00:27:49.807Z,59.36
2022-11-15T00:30:19.393Z,59.53
2022-11-15T00:32:47.260Z,59.56
2022-11-15T00:35:15.136Z,59.56
2022-11-15T00:37:42.931Z,59.37
2022-11-15T00:40:13.818Z,59.45
2022-11-15T00:42:45.385Z,59.42
2022-11-15T00:45:13.344Z,59.43
2022-11-15T00:47:42.645Z,59.55
2022-11-15T00:50:14.866Z,59.33
2022-11-15T00:52:43.280Z,58.80
2022-11-15T00:55:11.550Z,59.10
2022-11-15T00:57:39.375Z,59.55
2022-11-15T01:00:08.681Z,59.46
2022-11-15T01:02:36.620Z,58.74
2022-11-15T01:05:06.576Z,58.81
2022-11-15T01:07:34.623Z,58.96
2022-11-15T01:10:02.690Z,58.95
2022-11-15T01:12:30.621Z,58.70
2022-11-15T01:14:58.615Z,59.03
2022-11-15T01:17:26.504Z,58.61
2022-11-15T01:19:54.292Z,58.39
2022-11-15T01:22:23.555Z,58.98
2022-11-15T01:24:51.765Z,58.70
2022-11-15T01:27:19.743Z,58.44
2022-11-15T01:29:47.511Z,58.82
2022-11-15T01:32:15.363Z,58.71
2022-11-15T01:34:43.195Z,58.85
2022-11-15T01:37:11.254Z,58.55
2022-11-15T01:39:43.903Z,58.57
2022-11-15T01:42:14.249Z,58.70
2022-11-15T01:44:44.397Z,58.20
2022-11-15T01:47:17.188Z,58.19
2022-11-15T01:49:50.896Z,58.62
2022-11-15T01:52:20.292Z,58.56
2022-11-15T01:54:49.528Z,58.18
2022-11-15T01:57:17.665Z,58.20
2022-11-15T01:59:45.683Z,58.15
2022-11-15T02:02:14.684Z,58.42
2022-11-15T02:04:43.528Z,58.57
2022-11-15T02:07:12.625Z,58.62
2022-11-15T02:09:40.604Z,58.25
2022-11-15T02:12:10.364Z,58.68
2022-11-15T02:14:38.516Z,58.56
2022-11-15T02:17:13.135Z,58.86
2022-11-15T02:20:11.888Z,58.66
2022-11-15T02:22:43.336Z,58.61
2022-11-15T02:25:26.823Z,58.51
2022-11-15T02:28:21.696Z,58.51
2022-11-15T02:30:54.205Z,59.08
2022-11-15T02:33:29.808Z,58.79
2022-11-15T02:36:00.547Z,58.74
2022-11-15T02:38:33.334Z,59.50
2022-11-15T02:41:02.495Z,58.61
2022-11-15T02:43:49.209Z,58.78
2022-11-15T02:46:21.214Z,58.86
2022-11-15T02:48:49.171Z,59.19
2022-11-15T02:51:17.126Z,59.24
2022-11-15T02:53:45.035Z,59.12
2022-11-15T02:56:12.958Z,59.05
2022-11-15T02:58:51.492Z,59.60
2022-11-15T03:01:26.001Z,59.00
2022-11-15T03:04:00.408Z,59.38
2022-11-15T03:06:31.960Z,59.13
2022-11-15T03:09:05.294Z,59.06
2022-11-15T03:11:34.977Z,59.22
2022-11-15T03:14:04.938Z,59.50
2022-11-15T03:16:36.643Z,59.45
2022-11-15T03:19:06.659Z,59.27
2022-11-15T03:21:34.730Z,59.33
2022-11-15T03:24:05.102Z,59.31
2022-11-15T03:29:12.593Z,59.21
2022-11-15T03:31:51.525Z,59.05
2022-11-15T03:34:23.629Z,59.33
2022-11-15T03:36:52.373Z,59.34
2022-11-15T03:39:20.841Z,59.30
2022-11-15T03:41:50.484Z,59.12
2022-11-15T03:44:21.469Z,58.88
2022-11-15T03:46:53.817Z,58.78
2022-11-15T03:49:25.028Z,58.95
2022-11-15T03:51:52.945Z,59.11
2022-11-15T03:54:20.664Z,59.27
2022-11-15T03:56:48.396Z,59.21
2022-11-15T03:59:16.371Z,59.24
2022-11-15T04:01:44.122Z,59.45
2022-11-15T04:04:13.264Z,59.63
2022-11-15T04:06:43.720Z,59.36
2022-11-15T04:09:12.848Z,59.25
2022-11-15T04:11:40.763Z,59.27
2022-11-15T04:14:08.411Z,59.17
2022-11-15T04:16:40.955Z,59.16
2022-11-15T04:19:28.813Z,59.19
2022-11-15T04:22:20.997Z,58.89
2022-11-15T04:24:48.690Z,59.22
2022-11-15T04:27:16.460Z,59.35
2022-11-15T04:29:44.111Z,59.55
2022-11-15T04:32:12.142Z,59.37
2022-11-15T04:34:40.409Z,59.20
2022-11-15T04:37:15.134Z,59.33
2022-11-15T04:39:43.325Z,59.30
2022-11-15T04:42:11.275Z,59.46
2022-11-15T04:44:39.624Z,59.49
2022-11-15T04:47:07.796Z,59.62
2022-11-15T04:49:35.641Z,59.65
2022-11-15T04:52:03.596Z,60.03
2022-11-15T04:54:33.050Z,59.98
2022-11-15T04:57:01.074Z,59.96
2022-11-15T04:59:29.140Z,59.76
2022-11-15T05:01:56.891Z,59.69
2022-11-15T05:04:23.678Z,59.83
2022-11-15T05:06:51.798Z,59.68
2022-11-15T05:09:19.920Z,59.67
2022-11-15T05:11:50.836Z,59.56
2022-11-15T05:14:18.603Z,59.92
2022-11-15T05:16:46.388Z,59.46
2022-11-15T05:19:14.075Z,59.41
2022-11-15T05:21:42.019Z,59.50
2022-11-15T05:24:11.955Z,59.07
2022-11-15T05:26:42.617Z,59.10
2022-11-15T05:29:13.311Z,59.11
2022-11-15T05:31:42.877Z,59.18
2022-11-15T05:34:10.706Z,59.20
2022-11-15T05:36:41.306Z,59.38
2022-11-15T05:39:10.242Z,59.21
2022-11-15T05:41:39.270Z,59.04
2022-11-15T05:44:07.748Z,59.29
2022-11-15T05:46:36.918Z,59.32
2022-11-15T05:49:04.590Z,59.46
2022-11-15T05:51:32.400Z,59.37
2022-11-15T05:54:00.336Z,59.37
2022-11-15T05:56:28.314Z,58.88
2022-11-15T05:59:15.182Z,59.02
2022-11-15T06:01:46.036Z,59.12
2022-11-15T06:04:14.421Z,58.85
2022-11-15T06:14:43.574Z,58.87
2022-11-15T06:17:34.235Z,58.54
2022-11-15T06:20:26.970Z,58.45
2022-11-15T06:23:06.832Z,58.23
2022-11-15T06:25:49.457Z,58.52
2022-11-15T06:32:14.125Z,58.50
2022-11-15T06:38:53.404Z,58.50
2022-11-15T06:41:24.760Z,57.99
2022-11-15T06:44:15.771Z,58.23
2022-11-15T06:47:00.313Z,58.18
2022-11-15T06:50:30.223Z,57.72
2022-11-15T06:53:14.965Z,57.82
2022-11-15T07:00:05.726Z,57.57
2022-11-15T07:02:34.020Z,58.19
2022-11-15T07:05:02.195Z,57.85
2022-11-15T07:07:37.519Z,58.00
2022-11-15T07:10:13.982Z,58.13
2022-11-15T07:12:44.573Z,57.86
2022-11-15T07:15:12.363Z,57.53
2022-11-15T07:17:40.263Z,57.90
2022-11-15T07:20:13.289Z,57.53
2022-11-15T07:22:41.169Z,57.43
2022-11-15T07:25:11.775Z,57.37
2022-11-15T07:27:39.723Z,57.07
2022-11-15T07:30:08.562Z,56.98
2022-11-15T07:32:36.955Z,57.11
2022-11-15T07:35:05.025Z,57.25
2022-11-15T07:37:32.860Z,56.83
2022-11-15T07:40:00.522Z,56.80
2022-11-15T07:42:48.507Z,56.61
2022-11-15T07:45:16.523Z,56.06
2022-11-15T07:47:47.402Z,55.44
2022-11-15T07:50:15.303Z,54.79
2022-11-15T07:52:43.250Z,54.57
2022-11-15T07:55:11.058Z,54.31
2022-11-15T07:57:50.939Z,53.57
2022-11-15T08:00:19.765Z,53.36
2022-11-15T08:02:47.799Z,53.04
2022-11-15T08:05:15.996Z,51.56
2022-11-15T08:07:43.751Z,50.12
2022-11-15T08:10:13.695Z,49.69
2022-11-15T08:13:06.751Z,48.91
2022-11-15T08:16:27.488Z,48.64
2022-11-15T08:18:55.496Z,48.61
2022-11-15T08:21:29.080Z,47.12
2022-11-15T08:24:01.268Z,47.47
2022-11-15T08:26:31.399Z,47.59
2022-11-15T08:29:01.703Z,47.52
2022-11-15T08:31:31.510Z,47.96
2022-11-15T08:34:03.635Z,48.61
2022-11-15T08:36:37.018Z,48.96
2022-11-15T08:39:14.950Z,49.28
2022-11-15T08:41:42.852Z,49.31
2022-11-15T08:44:15.322Z,49.72
2022-11-15T08:46:43.241Z,49.60
2022-11-15T08:49:15.375Z,49.96
2022-11-15T08:51:43.230Z,49.84
2022-11-15T08:54:12.284Z,49.22
2022-11-15T08:56:40.269Z,49.41
2022-11-15T08:59:08.459Z,49.05
2022-11-15T09:01:37.816Z,48.05
2022-11-15T09:04:06.216Z,47.31
2022-11-15T09:06:34.498Z,46.05
2022-11-15T09:09:02.718Z,44.83
2022-11-15T09:11:30.578Z,44.29
2022-11-15T09:13:59.283Z,43.10
2022-11-15T09:16:27.076Z,42.56
2022-11-15T09:18:56.248Z,41.85
2022-11-15T09:21:24.047Z,40.83
2022-11-15T09:23:52.890Z,39.84
2022-11-15T09:26:20.784Z,39.22
2022-11-15T09:28:48.576Z,39.78
2022-11-15T09:31:21.025Z,39.26
2022-11-15T09:33:51.214Z,39.07
2022-11-15T09:36:20.723Z,38.10
2022-11-15T09:38:48.760Z,37.49
2022-11-15T09:41:38.397Z,36.51
2022-11-15T09:44:13.685Z,35.97
2022-11-15T09:46:46.391Z,35.22
2022-11-15T09:49:15.607Z,34.87
2022-11-15T09:51:48.599Z,34.93
2022-11-15T09:54:52.614Z,35.79
2022-11-15T09:57:16.054Z,36.00
2022-11-15T09:59:54.711Z,35.67
2022-11-15T10:02:35.388Z,36.15
2022-11-15T10:05:03.292Z,36.05
2022-11-15T10:07:42.815Z,35.02
2022-11-15T10:10:13.837Z,34.92
2022-11-15T10:12:41.673Z,34.95
2022-11-15T10:15:15.134Z,34.77
2022-11-15T10:17:59.317Z,33.70
2022-11-15T10:20:28.523Z,32.38
2022-11-15T10:23:00.908Z,31.65
2022-11-15T10:25:29.324Z,31.00
2022-11-15T10:27:59.261Z,30.22
2022-11-15T10:30:33.656Z,29.10
2022-11-15T10:33:01.984Z,28.03
2022-11-15T10:35:34.326Z,27.08
2022-11-15T10:38:10.984Z,26.53
2022-11-15T10:40:39.789Z,26.42
2022-11-15T10:43:18.381Z,26.30
2022-11-15T10:45:46.477Z,26.08
2022-11-15T10:48:23.507Z,25.47
2022-11-15T10:50:52.253Z,24.66
2022-11-15T10:53:24.849Z,23.46
2022-11-15T10:55:54.932Z,21.90
2022-11-15T10:58:24.995Z,21.39
2022-11-15T11:00:56.191Z,20.83
2022-11-15T11:03:30.622Z,19.83
2022-11-15T11:06:09.618Z,20.82
2022-11-15T11:08:39.255Z,21.04
2022-11-15T11:11:08.175Z,21.38
2022-11-15T11:13:37.475Z,21.11
2022-11-15T11:16:28.891Z,20.01
2022-11-15T11:19:00.237Z,18.95
2022-11-15T11:21:38.400Z,18.09
2022-11-15T11:24:12.585Z,17.76
2022-11-15T11:26:44.722Z,17.02
2022-11-15T11:29:26.173Z,16.23
2022-11-15T11:31:58.303Z,16.18
2022-11-15T11:34:36.236Z,15.32
2022-11-15T11:37:11.924Z,15.53
2022-11-15T11:39:46.075Z,14.99
2022-11-15T11:42:18.346Z,14.75
2022-11-15T11:44:51.598Z,13.93
2022-11-15T11:47:22.732Z,14.27
2022-11-15T11:49:53.269Z,13.82
2022-11-15T11:52:24.586Z,14.49
2022-11-15T11:54:58.974Z,14.10
2022-11-15T11:57:31.685Z,14.07
2022-11-15T12:00:03.208Z,13.97
2022-11-15T12:02:33.331Z,14.20
2022-11-15T12:05:06.400Z,13.88
2022-11-15T12:07:36.159Z,13.90
2022-11-15T12:10:07.793Z,15.26
2022-11-15T12:12:38.686Z,16.63
2022-11-15T12:15:12.727Z,17.12
2022-11-15T12:17:41.059Z,17.95
2022-11-15T12:20:17.376Z,18.95
2022-11-15T12:22:46.085Z,19.67
2022-11-15T12:25:19.451Z,20.25
2022-11-15T12:27:48.870Z,21.53
2022-11-15T12:30:17.770Z,22.04
2022-11-15T12:32:54.111Z,22.91
2022-11-15T12:35:30.692Z,22.76
2022-11-15T12:37:59.097Z,24.05
2022-11-15T12:40:36.441Z,24.81
2022-11-15T12:43:07.387Z,25.79
2022-11-15T12:45:36.368Z,26.50
2022-11-15T12:48:41.923Z,27.48
2022-11-15T12:51:10.509Z,28.10
2022-11-15T12:53:39.823Z,28.61
2022-11-15T12:56:23.716Z,29.25
2022-11-15T12:58:54.869Z,29.75
2022-11-15T13:01:56.135Z,30.42
2022-11-15T13:04:27.280Z,30.77
2022-11-15T13:06:57.124Z,31.38
2022-11-15T13:09:58.658Z,31.89
2022-11-15T13:12:54.520Z,32.22
2022-11-15T13:15:59.278Z,32.33
2022-11-15T13:18:39.640Z,32.98
2022-11-15T13:21:42.277Z,33.15
2022-11-15T13:24:15.891Z,33.70
2022-11-15T13:26:44.263Z,33.67
2022-11-15T13:29:19.956Z,34.25
2022-11-15T13:31:48.985Z,34.46
2022-11-15T13:34:50.120Z,35.79
2022-11-15T13:37:14.425Z,35.71
2022-11-15T13:39:42.783Z,36.67
2022-11-15T13:42:16.003Z,36.48
2022-11-15T13:44:56.870Z,37.05
2022-11-15T13:47:25.012Z,37.57
2022-11-15T13:49:52.969Z,37.81
2022-11-15T13:52:22.608Z,38.40
2022-11-15T13:54:54.874Z,38.73
2022-11-15T13:57:24.181Z,38.79
2022-11-15T13:59:54.561Z,38.97
2022-11-15T14:02:24.577Z,38.94
2022-11-15T14:04:53.957Z,39.51
2022-11-15T14:07:27.765Z,39.90
2022-11-15T14:09:59.044Z,39.93
2022-11-15T14:12:30.194Z,40.23
2022-11-15T14:15:00.210Z,40.66
2022-11-15T14:17:45.747Z,40.97
2022-11-15T14:20:29.478Z,40.93
2022-11-15T14:22:57.833Z,40.79
2022-11-15T14:25:26.399Z,40.99
2022-11-15T14:28:12.297Z,41.14
2022-11-15T14:30:42.224Z,41.12
2022-11-15T14:33:24.648Z,41.43
2022-11-15T14:35:52.928Z,41.37
2022-11-15T14:38:21.156Z,41.54
2022-11-15T14:40:48.929Z,41.43
2022-11-15T14:43:16.872Z,41.63
2022-11-15T14:45:46.682Z,41.72
2022-11-15T14:48:15.098Z,41.97
2022-11-15T14:50:43.271Z,42.06
2022-11-15T14:53:15.541Z,42.21
2022-11-15T14:55:43.781Z,42.46
2022-11-15T14:58:12.226Z,42.57
2022-11-15T15:00:40.932Z,42.81
2022-11-15T15:03:10.417Z,43.16
2022-11-15T15:05:39.544Z,42.97
2022-11-15T15:08:07.643Z,43.27
2022-11-15T15:10:40.557Z,43.25
2022-11-15T15:13:15.051Z,43.42
2022-11-15T15:15:43.450Z,43.51
2022-11-15T15:18:12.875Z,43.59
2022-11-15T15:20:41.671Z,43.71
2022-11-15T15:23:13.523Z,43.72
2022-11-15T15:25:43.125Z,43.72
2022-11-15T15:28:15.472Z,43.69
2022-11-15T15:30:46.231Z,43.72
2022-11-15T15:33:18.337Z,43.93
2022-11-15T15:35:46.227Z,43.97
2022-11-15T15:38:14.412Z,44.09
2022-11-15T15:40:42.492Z,44.42
2022-11-15T15:43:10.510Z,44.34
2022-11-15T15:45:38.961Z,44.47
2022-11-15T15:48:08.174Z,44.80
2022-11-15T15:50:37.897Z,44.99
2022-11-15T15:53:06.138Z,45.27
2022-11-15T15:55:34.078Z,45.29
2022-11-15T15:58:02.212Z,45.58
2022-11-15T16:00:30.246Z,45.60
2022-11-15T16:02:59.566Z,45.87
2022-11-15T16:05:27.684Z,46.18
2022-11-15T16:07:57.297Z,46.29
2022-11-15T16:10:26.935Z,46.34
2022-11-15T16:12:55.423Z,46.66
2022-11-15T16:15:24.758Z,46.91
2022-11-15T16:17:53.362Z,47.07
2022-11-15T16:20:30.691Z,46.94
2022-11-15T16:23:05.807Z,47.21
2022-11-15T16:25:42.616Z,46.88
2022-11-15T16:28:19.207Z,47.02
2022-11-15T16:30:49.901Z,47.38
2022-11-15T16:33:21.251Z,47.66
2022-11-15T16:35:49.915Z,47.22
2022-11-15T16:38:20.486Z,47.36
2022-11-15T16:40:48.973Z,47.22
2022-11-15T16:43:17.208Z,47.37
2022-11-15T16:45:44.998Z,47.47
2022-11-15T16:48:21.413Z,47.25
2022-11-15T16:50:49.501Z,47.61
2022-11-15T16:53:17.371Z,47.40
2022-11-15T16:55:46.555Z,47.68
2022-11-15T16:58:14.313Z,47.83
2022-11-15T17:00:42.073Z,47.76
2022-11-15T17:03:09.967Z,47.73
2022-11-15T17:05:37.652Z,47.62
2022-11-15T17:08:10.044Z,47.60
2022-11-15T17:10:39.971Z,47.64
2022-11-15T17:13:10.042Z,47.94
2022-11-15T17:15:37.790Z,47.88
2022-11-15T17:18:06.563Z,47.93
2022-11-15T17:20:34.350Z,47.86
2022-11-15T17:23:02.112Z,48.13
2022-11-15T17:25:29.815Z,48.02
2022-11-15T17:27:58.270Z,48.01
2022-11-15T17:30:28.432Z,47.82
2022-11-15T17:32:57.351Z,47.80
2022-11-15T17:35:26.935Z,48.50
2022-11-15T17:37:55.863Z,48.30
2022-11-15T17:40:24.592Z,48.19
2022-11-15T17:42:57.648Z,48.32
2022-11-15T17:45:27.643Z,47.98
2022-11-15T17:55:35.038Z,48.16
2022-11-15T18:06:06.705Z,48.84
2022-11-15T18:24:48.695Z,49.80
2022-11-15T18:27:27.470Z,50.02
2022-11-15T18:30:47.008Z,50.68
2022-11-15T18:51:59.308Z,53.61
2022-11-15T19:19:57.116Z,55.99
2022-11-15T19:26:57.324Z,56.18
2022-11-15T19:30:24.230Z,56.29
2022-11-15T20:48:12.677Z,60.27
2022-11-15T22:30:46.123Z,60.81
2022-11-15T22:33:16.099Z,61.18
2022-11-15T22:35:44.525Z,61.08
2022-11-15T22:38:12.875Z,60.95
2022-11-15T22:40:41.515Z,61.61
2022-11-15T22:43:09.785Z,60.90
2022-11-15T22:45:37.845Z,61.20
2022-11-15T22:48:05.984Z,61.14
2022-11-15T22:50:35.385Z,61.51
2022-11-15T22:53:03.358Z,61.38
2022-11-15T22:55:31.355Z,61.26
2022-11-15T22:57:59.347Z,61.21
2022-11-15T23:00:27.306Z,61.26
2022-11-15T23:02:55.897Z,61.46
2022-11-15T23:05:25.717Z,61.46
2022-11-15T23:07:55.285Z,61.87
2022-11-15T23:10:40.851Z,61.43
2022-11-15T23:13:18.254Z,61.75
2022-11-15T23:16:05.092Z,61.57
2022-11-15T23:18:35.629Z,61.89
2022-11-15T23:21:09.902Z,61.52
2022-11-15T23:23:38.356Z,62.05
2022-11-15T23:26:06.589Z,62.18
2022-11-15T23:28:35.084Z,61.96
2022-11-15T23:31:21.866Z,61.63
2022-11-15T23:33:58.659Z,62.12
2022-11-15T23:36:27.103Z,62.08
2022-11-15T23:38:56.796Z,62.50
2022-11-15T23:41:25.329Z,62.36
2022-11-15T23:43:53.531Z,62.36
2022-11-15T23:46:21.779Z,62.89
2022-11-15T23:48:49.734Z,62.34
2022-11-15T23:51:17.724Z,62.82
2022-11-15T23:53:45.628Z,62.67
2022-11-15T23:56:15.798Z,63.08
2022-11-15T23:58:44.161Z,62.80
